sensor_id;sensor_type;location;lat;lon;timestamp;temperature;humidity
584;HTU21D;27024;54.068;12.116;2022-11-02T00:01:54;8.94;108.08
584;HTU21D;27024;54.068;12.116;2022-11-02T00:04:21;9.07;107.60
584;HTU21D;27024;54.068;12.116;2022-11-02T00:06:48;9.04;107.43
584;HTU21D;27024;54.068;12.116;2022-11-02T00:09:14;8.97;107.85
584;HTU21D;27024;54.068;12.116;2022-11-02T00:11:41;8.91;108.40
584;HTU21D;27024;54.068;12.116;2022-11-02T00:14:08;8.81;108.80
584;HTU21D;27024;54.068;12.116;2022-11-02T00:16:37;8.95;108.17
584;HTU21D;27024;54.068;12.116;2022-11-02T00:19:06;8.90;108.04
584;HTU21D;27024;54.068;12.116;2022-11-02T00:21:34;8.87;108.36
584;HTU21D;27024;54.068;12.116;2022-11-02T00:24:01;8.81;108.25
584;HTU21D;27024;54.068;12.116;2022-11-02T00:26:28;8.82;108.91
584;HTU21D;27024;54.068;12.116;2022-11-02T00:28:56;8.90;107.95
584;HTU21D;27024;54.068;12.116;2022-11-02T00:31:23;8.98;107.15
584;HTU21D;27024;54.068;12.116;2022-11-02T00:33:50;9.06;106.99
584;HTU21D;27024;54.068;12.116;2022-11-02T00:36:17;9.02;107.14
584;HTU21D;27024;54.068;12.116;2022-11-02T00:38:44;8.96;107.28
584;HTU21D;27024;54.068;12.116;2022-11-02T00:41:11;8.97;107.37
584;HTU21D;27024;54.068;12.116;2022-11-02T00:43:38;8.97;107.24
584;HTU21D;27024;54.068;12.116;2022-11-02T00:46:04;9.00;106.81
584;HTU21D;27024;54.068;12.116;2022-11-02T00:48:31;8.88;107.38
584;HTU21D;27024;54.068;12.116;2022-11-02T00:50:58;8.83;107.66
584;HTU21D;27024;54.068;12.116;2022-11-02T00:53:25;8.92;106.87
584;HTU21D;27024;54.068;12.116;2022-11-02T00:55:51;8.92;106.82
584;HTU21D;27024;54.068;12.116;2022-11-02T00:58:19;8.93;107.01
584;HTU21D;27024;54.068;12.116;2022-11-02T01:00:46;8.91;106.78
584;HTU21D;27024;54.068;12.116;2022-11-02T01:03:13;8.96;106.82
584;HTU21D;27024;54.068;12.116;2022-11-02T01:05:40;8.94;106.62
584;HTU21D;27024;54.068;12.116;2022-11-02T01:08:07;8.95;106.58
584;HTU21D;27024;54.068;12.116;2022-11-02T01:10:33;8.92;106.14
584;HTU21D;27024;54.068;12.116;2022-11-02T01:13:00;9.00;105.92
584;HTU21D;27024;54.068;12.116;2022-11-02T01:15:27;9.03;105.60
584;HTU21D;27024;54.068;12.116;2022-11-02T01:17:54;9.07;105.21
584;HTU21D;27024;54.068;12.116;2022-11-02T01:20:21;9.09;104.97
584;HTU21D;27024;54.068;12.116;2022-11-02T01:22:47;9.02;105.18
584;HTU21D;27024;54.068;12.116;2022-11-02T01:25:14;9.00;105.64
584;HTU21D;27024;54.068;12.116;2022-11-02T01:27:41;9.04;105.23
584;HTU21D;27024;54.068;12.116;2022-11-02T01:30:08;8.96;105.43
584;HTU21D;27024;54.068;12.116;2022-11-02T01:32:35;8.91;105.28
584;HTU21D;27024;54.068;12.116;2022-11-02T01:35:02;8.95;104.89
584;HTU21D;27024;54.068;12.116;2022-11-02T01:37:29;8.95;105.02
584;HTU21D;27024;54.068;12.116;2022-11-02T01:39:55;8.95;104.89
584;HTU21D;27024;54.068;12.116;2022-11-02T01:42:24;8.89;105.02
584;HTU21D;27024;54.068;12.116;2022-11-02T01:44:51;8.80;105.79
584;HTU21D;27024;54.068;12.116;2022-11-02T01:47:30;8.82;105.37
584;HTU21D;27024;54.068;12.116;2022-11-02T01:50:07;8.78;106.01
584;HTU21D;27024;54.068;12.116;2022-11-02T01:52:37;8.83;105.27
584;HTU21D;27024;54.068;12.116;2022-11-02T01:55:20;8.78;105.50
584;HTU21D;27024;54.068;12.116;2022-11-02T01:58:09;8.80;105.50
584;HTU21D;27024;54.068;12.116;2022-11-02T02:00:37;8.80;105.59
584;HTU21D;27024;54.068;12.116;2022-11-02T02:03:23;8.87;104.98
584;HTU21D;27024;54.068;12.116;2022-11-02T02:06:00;8.68;106.12
584;HTU21D;27024;54.068;12.116;2022-11-02T02:08:30;8.91;104.72
584;HTU21D;27024;54.068;12.116;2022-11-02T02:10:58;8.75;105.89
584;HTU21D;27024;54.068;12.116;2022-11-02T02:13:26;8.76;105.62
584;HTU21D;27024;54.068;12.116;2022-11-02T02:16:27;8.85;105.13
584;HTU21D;27024;54.068;12.116;2022-11-02T02:19:05;8.86;105.00
584;HTU21D;27024;54.068;12.116;2022-11-02T02:21:40;8.91;104.48
584;HTU21D;27024;54.068;12.116;2022-11-02T02:27:04;8.90;104.66
584;HTU21D;27024;54.068;12.116;2022-11-02T02:35:25;8.80;105.06
584;HTU21D;27024;54.068;12.116;2022-11-02T02:38:29;8.90;104.69
584;HTU21D;27024;54.068;12.116;2022-11-02T02:43:39;8.81;104.95
584;HTU21D;27024;54.068;12.116;2022-11-02T02:46:12;8.87;104.90
584;HTU21D;27024;54.068;12.116;2022-11-02T02:48:44;8.90;104.37
584;HTU21D;27024;54.068;12.116;2022-11-02T02:51:32;8.88;104.71
584;HTU21D;27024;54.068;12.116;2022-11-02T02:54:05;8.90;104.29
584;HTU21D;27024;54.068;12.116;2022-11-02T02:56:42;8.98;103.89
584;HTU21D;27024;54.068;12.116;2022-11-02T02:59:21;9.06;103.67
584;HTU21D;27024;54.068;12.116;2022-11-02T03:01:49;8.97;104.12
584;HTU21D;27024;54.068;12.116;2022-11-02T03:04:16;9.01;103.89
584;HTU21D;27024;54.068;12.116;2022-11-02T03:06:47;8.94;104.50
584;HTU21D;27024;54.068;12.116;2022-11-02T03:12:13;8.95;104.14
584;HTU21D;27024;54.068;12.116;2022-11-02T03:17:20;8.72;105.63
584;HTU21D;27024;54.068;12.116;2022-11-02T03:22:33;8.76;105.26
584;HTU21D;27024;54.068;12.116;2022-11-02T03:25:22;8.77;105.16
584;HTU21D;27024;54.068;12.116;2022-11-02T03:30:39;8.70;105.77
584;HTU21D;27024;54.068;12.116;2022-11-02T03:33:29;8.70;105.80
584;HTU21D;27024;54.068;12.116;2022-11-02T03:38:44;8.53;106.99
584;HTU21D;27024;54.068;12.116;2022-11-02T03:41:14;8.56;107.08
584;HTU21D;27024;54.068;12.116;2022-11-02T03:43:43;8.47;107.46
584;HTU21D;27024;54.068;12.116;2022-11-02T03:46:11;8.45;107.85
584;HTU21D;27024;54.068;12.116;2022-11-02T03:48:44;8.59;106.67
584;HTU21D;27024;54.068;12.116;2022-11-02T03:51:14;8.62;106.92
584;HTU21D;27024;54.068;12.116;2022-11-02T03:56:31;8.61;106.72
584;HTU21D;27024;54.068;12.116;2022-11-02T03:59:00;8.59;106.88
584;HTU21D;27024;54.068;12.116;2022-11-02T04:01:27;8.66;106.33
584;HTU21D;27024;54.068;12.116;2022-11-02T04:03:55;8.80;105.31
584;HTU21D;27024;54.068;12.116;2022-11-02T04:06:22;8.80;105.40
584;HTU21D;27024;54.068;12.116;2022-11-02T04:08:51;8.81;105.50
584;HTU21D;27024;54.068;12.116;2022-11-02T04:11:17;8.86;105.39
584;HTU21D;27024;54.068;12.116;2022-11-02T04:14:03;8.85;105.24
584;HTU21D;27024;54.068;12.116;2022-11-02T04:16:48;8.90;104.82
584;HTU21D;27024;54.068;12.116;2022-11-02T04:19:15;8.85;105.41
584;HTU21D;27024;54.068;12.116;2022-11-02T04:21:55;8.86;105.08
584;HTU21D;27024;54.068;12.116;2022-11-02T04:24:41;8.81;105.22
584;HTU21D;27024;54.068;12.116;2022-11-02T04:27:26;8.77;105.99
584;HTU21D;27024;54.068;12.116;2022-11-02T04:29:53;8.81;105.58
584;HTU21D;27024;54.068;12.116;2022-11-02T04:32:20;8.74;105.98
584;HTU21D;27024;54.068;12.116;2022-11-02T04:35:06;8.75;105.87
584;HTU21D;27024;54.068;12.116;2022-11-02T04:37:41;8.72;105.80
584;HTU21D;27024;54.068;12.116;2022-11-02T04:40:27;8.74;105.65
584;HTU21D;27024;54.068;12.116;2022-11-02T04:42:54;8.75;105.87
584;HTU21D;27024;54.068;12.116;2022-11-02T04:45:21;8.75;105.81
584;HTU21D;27024;54.068;12.116;2022-11-02T04:47:48;8.80;105.41
584;HTU21D;27024;54.068;12.116;2022-11-02T04:50:15;8.70;105.89
584;HTU21D;27024;54.068;12.116;2022-11-02T04:52:42;8.74;105.79
584;HTU21D;27024;54.068;12.116;2022-11-02T04:55:09;8.72;105.94
584;HTU21D;27024;54.068;12.116;2022-11-02T04:57:35;8.66;106.43
584;HTU21D;27024;54.068;12.116;2022-11-02T05:00:03;8.71;106.42
584;HTU21D;27024;54.068;12.116;2022-11-02T05:02:30;8.76;105.99
584;HTU21D;27024;54.068;12.116;2022-11-02T05:04:57;8.79;105.90
584;HTU21D;27024;54.068;12.116;2022-11-02T05:07:24;8.73;106.43
584;HTU21D;27024;54.068;12.116;2022-11-02T05:09:51;8.74;106.55
584;HTU21D;27024;54.068;12.116;2022-11-02T05:12:17;8.70;106.79
584;HTU21D;27024;54.068;12.116;2022-11-02T05:14:44;8.78;106.66
584;HTU21D;27024;54.068;12.116;2022-11-02T05:17:11;8.72;106.65
584;HTU21D;27024;54.068;12.116;2022-11-02T05:19:39;8.66;106.97
584;HTU21D;27024;54.068;12.116;2022-11-02T05:22:05;8.68;106.85
584;HTU21D;27024;54.068;12.116;2022-11-02T05:24:32;8.73;106.80
584;HTU21D;27024;54.068;12.116;2022-11-02T05:26:59;8.77;106.82
584;HTU21D;27024;54.068;12.116;2022-11-02T05:29:26;8.77;106.59
584;HTU21D;27024;54.068;12.116;2022-11-02T05:31:53;8.79;106.53
584;HTU21D;27024;54.068;12.116;2022-11-02T05:34:20;8.88;106.41
584;HTU21D;27024;54.068;12.116;2022-11-02T05:36:47;8.85;106.90
584;HTU21D;27024;54.068;12.116;2022-11-02T05:39:14;8.86;106.77
584;HTU21D;27024;54.068;12.116;2022-11-02T05:41:41;8.91;106.69
584;HTU21D;27024;54.068;12.116;2022-11-02T05:44:08;8.97;106.69
584;HTU21D;27024;54.068;12.116;2022-11-02T05:46:35;9.00;107.01
584;HTU21D;27024;54.068;12.116;2022-11-02T05:49:02;9.14;106.25
584;HTU21D;27024;54.068;12.116;2022-11-02T05:51:29;9.09;106.41
584;HTU21D;27024;54.068;12.116;2022-11-02T05:53:56;9.11;107.42
584;HTU21D;27024;54.068;12.116;2022-11-02T05:56:22;9.19;106.57
584;HTU21D;27024;54.068;12.116;2022-11-02T05:58:53;9.19;106.68
584;HTU21D;27024;54.068;12.116;2022-11-02T06:01:20;9.26;106.66
584;HTU21D;27024;54.068;12.116;2022-11-02T06:03:47;9.30;106.87
584;HTU21D;27024;54.068;12.116;2022-11-02T06:06:19;9.30;107.00
584;HTU21D;27024;54.068;12.116;2022-11-02T06:08:46;9.30;107.35
584;HTU21D;27024;54.068;12.116;2022-11-02T06:11:13;9.39;107.42
584;HTU21D;27024;54.068;12.116;2022-11-02T06:13:40;9.42;106.98
584;HTU21D;27024;54.068;12.116;2022-11-02T06:16:09;9.51;106.96
584;HTU21D;27024;54.068;12.116;2022-11-02T06:18:37;9.65;105.80
584;HTU21D;27024;54.068;12.116;2022-11-02T06:21:05;9.81;105.59
584;HTU21D;27024;54.068;12.116;2022-11-02T06:23:32;9.78;106.46
584;HTU21D;27024;54.068;12.116;2022-11-02T06:25:59;9.90;106.25
584;HTU21D;27024;54.068;12.116;2022-11-02T06:28:27;9.83;106.15
584;HTU21D;27024;54.068;12.116;2022-11-02T06:30:54;9.86;106.69
584;HTU21D;27024;54.068;12.116;2022-11-02T06:33:21;9.90;107.69
584;HTU21D;27024;54.068;12.116;2022-11-02T06:35:50;9.88;108.23
584;HTU21D;27024;54.068;12.116;2022-11-02T06:38:18;9.81;109.14
584;HTU21D;27024;54.068;12.116;2022-11-02T06:41:00;9.77;109.85
584;HTU21D;27024;54.068;12.116;2022-11-02T06:43:33;9.82;109.94
584;HTU21D;27024;54.068;12.116;2022-11-02T06:46:02;9.84;109.94
584;HTU21D;27024;54.068;12.116;2022-11-02T06:48:29;9.83;110.35
584;HTU21D;27024;54.068;12.116;2022-11-02T06:51:02;9.84;110.42
584;HTU21D;27024;54.068;12.116;2022-11-02T06:53:30;9.88;110.60
584;HTU21D;27024;54.068;12.116;2022-11-02T06:55:58;9.85;110.97
584;HTU21D;27024;54.068;12.116;2022-11-02T06:58:25;9.86;111.17
584;HTU21D;27024;54.068;12.116;2022-11-02T07:01:00;9.80;111.29
584;HTU21D;27024;54.068;12.116;2022-11-02T07:03:29;9.75;111.60
584;HTU21D;27024;54.068;12.116;2022-11-02T07:05:56;9.74;111.74
584;HTU21D;27024;54.068;12.116;2022-11-02T07:08:24;9.75;111.78
584;HTU21D;27024;54.068;12.116;2022-11-02T07:10:51;9.79;111.74
584;HTU21D;27024;54.068;12.116;2022-11-02T07:13:18;9.86;111.36
584;HTU21D;27024;54.068;12.116;2022-11-02T07:15:45;9.76;111.42
584;HTU21D;27024;54.068;12.116;2022-11-02T07:18:12;9.82;111.23
584;HTU21D;27024;54.068;12.116;2022-11-02T07:20:38;9.82;111.58
584;HTU21D;27024;54.068;12.116;2022-11-02T07:23:05;9.83;110.90
584;HTU21D;27024;54.068;12.116;2022-11-02T07:25:33;10.01;111.37
584;HTU21D;27024;54.068;12.116;2022-11-02T07:28:00;10.28;111.38
584;HTU21D;27024;54.068;12.116;2022-11-02T07:30:29;10.37;111.90
584;HTU21D;27024;54.068;12.116;2022-11-02T07:32:56;10.13;108.48
584;HTU21D;27024;54.068;12.116;2022-11-02T07:35:23;10.09;108.51
584;HTU21D;27024;54.068;12.116;2022-11-02T07:37:57;10.20;108.30
584;HTU21D;27024;54.068;12.116;2022-11-02T07:40:25;10.33;107.74
584;HTU21D;27024;54.068;12.116;2022-11-02T07:42:52;10.51;107.05
584;HTU21D;27024;54.068;12.116;2022-11-02T07:45:22;10.64;106.08
584;HTU21D;27024;54.068;12.116;2022-11-02T07:47:49;10.75;105.55
584;HTU21D;27024;54.068;12.116;2022-11-02T07:50:19;10.84;105.73
584;HTU21D;27024;54.068;12.116;2022-11-02T07:52:48;10.87;105.37
584;HTU21D;27024;54.068;12.116;2022-11-02T07:55:17;10.99;104.80
584;HTU21D;27024;54.068;12.116;2022-11-02T07:57:57;11.11;103.77
584;HTU21D;27024;54.068;12.116;2022-11-02T08:00:27;11.17;103.68
584;HTU21D;27024;54.068;12.116;2022-11-02T08:02:56;11.38;102.35
584;HTU21D;27024;54.068;12.116;2022-11-02T08:05:24;11.59;101.86
584;HTU21D;27024;54.068;12.116;2022-11-02T08:08:17;11.74;100.80
584;HTU21D;27024;54.068;12.116;2022-11-02T08:10:45;11.85;100.77
584;HTU21D;27024;54.068;12.116;2022-11-02T08:13:15;11.97;100.15
584;HTU21D;27024;54.068;12.116;2022-11-02T08:15:42;11.92;99.88
584;HTU21D;27024;54.068;12.116;2022-11-02T08:18:14;12.02;99.04
584;HTU21D;27024;54.068;12.116;2022-11-02T08:20:41;12.17;99.09
584;HTU21D;27024;54.068;12.116;2022-11-02T08:23:09;12.23;98.92
584;HTU21D;27024;54.068;12.116;2022-11-02T08:25:37;12.44;97.92
584;HTU21D;27024;54.068;12.116;2022-11-02T08:28:05;12.64;97.11
584;HTU21D;27024;54.068;12.116;2022-11-02T08:30:33;12.86;95.37
584;HTU21D;27024;54.068;12.116;2022-11-02T08:33:02;13.09;94.58
584;HTU21D;27024;54.068;12.116;2022-11-02T08:35:30;13.08;94.69
584;HTU21D;27024;54.068;12.116;2022-11-02T08:37:56;13.35;93.11
584;HTU21D;27024;54.068;12.116;2022-11-02T08:40:26;13.78;90.90
584;HTU21D;27024;54.068;12.116;2022-11-02T08:42:57;13.93;90.03
584;HTU21D;27024;54.068;12.116;2022-11-02T08:45:24;14.50;87.97
584;HTU21D;27024;54.068;12.116;2022-11-02T08:47:51;14.23;88.31
584;HTU21D;27024;54.068;12.116;2022-11-02T08:50:18;14.72;85.91
584;HTU21D;27024;54.068;12.116;2022-11-02T08:52:45;14.94;85.06
584;HTU21D;27024;54.068;12.116;2022-11-02T08:55:12;14.80;84.70
584;HTU21D;27024;54.068;12.116;2022-11-02T08:57:46;14.98;83.99
584;HTU21D;27024;54.068;12.116;2022-11-02T09:00:14;15.49;81.32
584;HTU21D;27024;54.068;12.116;2022-11-02T09:02:41;15.55;80.03
584;HTU21D;27024;54.068;12.116;2022-11-02T09:05:09;15.56;80.92
584;HTU21D;27024;54.068;12.116;2022-11-02T09:07:36;15.28;81.71
584;HTU21D;27024;54.068;12.116;2022-11-02T09:10:04;14.93;83.45
584;HTU21D;27024;54.068;12.116;2022-11-02T09:12:30;15.76;80.02
584;HTU21D;27024;54.068;12.116;2022-11-02T09:14:58;15.89;79.39
584;HTU21D;27024;54.068;12.116;2022-11-02T09:17:24;16.01;78.82
584;HTU21D;27024;54.068;12.116;2022-11-02T09:19:51;16.24;76.36
584;HTU21D;27024;54.068;12.116;2022-11-02T09:22:18;16.69;74.82
584;HTU21D;27024;54.068;12.116;2022-11-02T09:24:44;16.56;74.40
584;HTU21D;27024;54.068;12.116;2022-11-02T09:27:14;16.57;74.21
584;HTU21D;27024;54.068;12.116;2022-11-02T09:29:42;16.26;76.37
584;HTU21D;27024;54.068;12.116;2022-11-02T09:32:09;15.83;78.30
584;HTU21D;27024;54.068;12.116;2022-11-02T09:34:35;15.58;80.18
584;HTU21D;27024;54.068;12.116;2022-11-02T09:37:02;15.60;80.36
584;HTU21D;27024;54.068;12.116;2022-11-02T09:39:29;15.51;81.03
584;HTU21D;27024;54.068;12.116;2022-11-02T09:42:50;15.31;80.85
584;HTU21D;27024;54.068;12.116;2022-11-02T09:45:21;15.54;80.74
584;HTU21D;27024;54.068;12.116;2022-11-02T09:47:56;15.73;80.26
584;HTU21D;27024;54.068;12.116;2022-11-02T09:51:14;15.73;79.66
584;HTU21D;27024;54.068;12.116;2022-11-02T09:56:20;15.01;82.46
584;HTU21D;27024;54.068;12.116;2022-11-02T09:58:53;14.65;84.80
584;HTU21D;27024;54.068;12.116;2022-11-02T10:04:18;14.72;84.45
584;HTU21D;27024;54.068;12.116;2022-11-02T10:07:01;14.62;83.66
584;HTU21D;27024;54.068;12.116;2022-11-02T10:09:38;14.44;84.20
584;HTU21D;27024;54.068;12.116;2022-11-02T10:15:27;14.17;84.72
584;HTU21D;27024;54.068;12.116;2022-11-02T10:17:59;14.11;85.08
584;HTU21D;27024;54.068;12.116;2022-11-02T10:20:29;13.95;85.58
584;HTU21D;27024;54.068;12.116;2022-11-02T10:23:02;14.03;85.54
584;HTU21D;27024;54.068;12.116;2022-11-02T10:25:30;14.10;86.00
584;HTU21D;27024;54.068;12.116;2022-11-02T10:28:08;14.24;85.43
584;HTU21D;27024;54.068;12.116;2022-11-02T10:30:35;14.40;85.80
584;HTU21D;27024;54.068;12.116;2022-11-02T10:33:10;15.07;82.00
584;HTU21D;27024;54.068;12.116;2022-11-02T10:44:02;14.33;86.62
584;HTU21D;27024;54.068;12.116;2022-11-02T10:51:48;13.96;88.33
584;HTU21D;27024;54.068;12.116;2022-11-02T10:54:15;13.85;88.82
584;HTU21D;27024;54.068;12.116;2022-11-02T10:56:51;13.97;88.88
584;HTU21D;27024;54.068;12.116;2022-11-02T10:59:19;13.92;88.65
584;HTU21D;27024;54.068;12.116;2022-11-02T11:04:27;14.67;86.66
584;HTU21D;27024;54.068;12.116;2022-11-02T11:06:55;15.56;81.20
584;HTU21D;27024;54.068;12.116;2022-11-02T11:09:28;16.20;74.47
584;HTU21D;27024;54.068;12.116;2022-11-02T11:12:05;16.07;75.69
584;HTU21D;27024;54.068;12.116;2022-11-02T11:14:43;15.59;76.80
584;HTU21D;27024;54.068;12.116;2022-11-02T11:17:36;15.26;78.65
584;HTU21D;27024;54.068;12.116;2022-11-02T11:23:26;15.29;78.89
584;HTU21D;27024;54.068;12.116;2022-11-02T11:25:57;15.55;78.02
584;HTU21D;27024;54.068;12.116;2022-11-02T11:31:15;15.63;75.87
584;HTU21D;27024;54.068;12.116;2022-11-02T11:34:03;15.73;74.89
584;HTU21D;27024;54.068;12.116;2022-11-02T11:36:32;15.67;75.51
584;HTU21D;27024;54.068;12.116;2022-11-02T11:39:02;15.45;77.83
584;HTU21D;27024;54.068;12.116;2022-11-02T11:41:31;14.97;79.92
584;HTU21D;27024;54.068;12.116;2022-11-02T11:44:00;14.67;80.74
584;HTU21D;27024;54.068;12.116;2022-11-02T11:46:42;14.55;83.73
584;HTU21D;27024;54.068;12.116;2022-11-02T11:49:28;14.13;86.61
584;HTU21D;27024;54.068;12.116;2022-11-02T11:52:27;13.91;90.95
584;HTU21D;27024;54.068;12.116;2022-11-02T11:58:28;12.84;100.96
584;HTU21D;27024;54.068;12.116;2022-11-02T12:17:26;13.45;97.19
584;HTU21D;27024;54.068;12.116;2022-11-02T12:20:48;13.43;97.88
584;HTU21D;27024;54.068;12.116;2022-11-02T12:28:53;13.14;96.97
584;HTU21D;27024;54.068;12.116;2022-11-02T12:36:52;13.07;96.70
584;HTU21D;27024;54.068;12.116;2022-11-02T12:40:10;13.10;94.73
584;HTU21D;27024;54.068;12.116;2022-11-02T12:43:33;13.32;92.09
584;HTU21D;27024;54.068;12.116;2022-11-02T12:51:26;13.93;88.81
584;HTU21D;27024;54.068;12.116;2022-11-02T12:54:01;14.25;87.35
584;HTU21D;27024;54.068;12.116;2022-11-02T12:59:38;14.43;85.22
584;HTU21D;27024;54.068;12.116;2022-11-02T13:02:31;14.42;86.27
584;HTU21D;27024;54.068;12.116;2022-11-02T13:05:07;14.04;88.23
584;HTU21D;27024;54.068;12.116;2022-11-02T13:07:41;13.31;92.56
584;HTU21D;27024;54.068;12.116;2022-11-02T13:10:19;12.67;99.06
584;HTU21D;27024;54.068;12.116;2022-11-02T13:12:47;12.45;102.25
584;HTU21D;27024;54.068;12.116;2022-11-02T13:15:19;12.57;102.66
584;HTU21D;27024;54.068;12.116;2022-11-02T13:20:20;13.21;101.43
584;HTU21D;27024;54.068;12.116;2022-11-02T13:23:00;13.18;99.90
584;HTU21D;27024;54.068;12.116;2022-11-02T13:25:35;13.17;100.72
584;HTU21D;27024;54.068;12.116;2022-11-02T13:30:43;12.78;101.56
584;HTU21D;27024;54.068;12.116;2022-11-02T13:33:21;12.67;101.93
584;HTU21D;27024;54.068;12.116;2022-11-02T13:35:49;12.52;102.50
584;HTU21D;27024;54.068;12.116;2022-11-02T13:38:30;12.42;102.85
584;HTU21D;27024;54.068;12.116;2022-11-02T13:43:55;12.31;101.69
584;HTU21D;27024;54.068;12.116;2022-11-02T13:49:15;12.34;101.12
584;HTU21D;27024;54.068;12.116;2022-11-02T13:51:52;12.34;100.21
584;HTU21D;27024;54.068;12.116;2022-11-02T13:54:27;12.35;99.64
584;HTU21D;27024;54.068;12.116;2022-11-02T13:56:57;12.44;99.22
584;HTU21D;27024;54.068;12.116;2022-11-02T13:59:36;12.37;98.29
584;HTU21D;27024;54.068;12.116;2022-11-02T14:02:13;12.29;98.15
584;HTU21D;27024;54.068;12.116;2022-11-02T14:04:42;12.21;97.90
584;HTU21D;27024;54.068;12.116;2022-11-02T14:07:20;12.19;98.59
584;HTU21D;27024;54.068;12.116;2022-11-02T14:09:48;11.58;101.44
584;HTU21D;27024;54.068;12.116;2022-11-02T14:20:45;10.31;109.68
584;HTU21D;27024;54.068;12.116;2022-11-02T14:25:55;10.14;110.00
584;HTU21D;27024;54.068;12.116;2022-11-02T14:31:22;10.10;110.21
584;HTU21D;27024;54.068;12.116;2022-11-02T14:34:07;10.10;109.12
584;HTU21D;27024;54.068;12.116;2022-11-02T14:45:05;10.10;111.90
584;HTU21D;27024;54.068;12.116;2022-11-02T14:47:36;10.21;111.55
584;HTU21D;27024;54.068;12.116;2022-11-02T14:50:14;10.21;111.97
584;HTU21D;27024;54.068;12.116;2022-11-02T14:53:01;10.19;112.16
584;HTU21D;27024;54.068;12.116;2022-11-02T14:55:32;10.19;112.11
584;HTU21D;27024;54.068;12.116;2022-11-02T14:58:04;10.26;112.06
584;HTU21D;27024;54.068;12.116;2022-11-02T15:03:34;10.42;107.24
584;HTU21D;27024;54.068;12.116;2022-11-02T15:06:19;10.50;106.53
584;HTU21D;27024;54.068;12.116;2022-11-02T15:08:59;10.59;104.12
584;HTU21D;27024;54.068;12.116;2022-11-02T15:11:47;10.57;104.46
584;HTU21D;27024;54.068;12.116;2022-11-02T15:25:02;10.28;101.80
584;HTU21D;27024;54.068;12.116;2022-11-02T15:27:30;10.30;99.89
584;HTU21D;27024;54.068;12.116;2022-11-02T15:29:57;10.28;100.28
584;HTU21D;27024;54.068;12.116;2022-11-02T15:32:27;10.26;98.74
584;HTU21D;27024;54.068;12.116;2022-11-02T15:34:56;10.20;99.35
584;HTU21D;27024;54.068;12.116;2022-11-02T15:37:25;10.19;98.76
584;HTU21D;27024;54.068;12.116;2022-11-02T15:39:57;10.14;97.68
584;HTU21D;27024;54.068;12.116;2022-11-02T15:48:34;10.09;96.71
584;HTU21D;27024;54.068;12.116;2022-11-02T15:54:10;10.10;95.64
584;HTU21D;27024;54.068;12.116;2022-11-02T15:56:50;10.05;96.27
584;HTU21D;27024;54.068;12.116;2022-11-02T16:02:23;10.13;95.00
584;HTU21D;27024;54.068;12.116;2022-11-02T16:05:01;10.13;95.01
584;HTU21D;27024;54.068;12.116;2022-11-02T16:07:28;10.14;94.99
584;HTU21D;27024;54.068;12.116;2022-11-02T16:10:24;10.19;94.18
584;HTU21D;27024;54.068;12.116;2022-11-02T16:13:19;10.15;95.10
584;HTU21D;27024;54.068;12.116;2022-11-02T16:15:47;10.13;95.51
584;HTU21D;27024;54.068;12.116;2022-11-02T16:18:29;10.06;96.70
584;HTU21D;27024;54.068;12.116;2022-11-02T16:20:58;10.08;96.81
584;HTU21D;27024;54.068;12.116;2022-11-02T16:23:30;10.06;97.03
584;HTU21D;27024;54.068;12.116;2022-11-02T16:25:59;9.96;97.23
584;HTU21D;27024;54.068;12.116;2022-11-02T16:28:31;10.00;97.00
584;HTU21D;27024;54.068;12.116;2022-11-02T16:36:19;10.03;97.19
584;HTU21D;27024;54.068;12.116;2022-11-02T16:41:31;9.85;98.71
584;HTU21D;27024;54.068;12.116;2022-11-02T16:44:01;9.79;99.55
584;HTU21D;27024;54.068;12.116;2022-11-02T16:49:33;9.81;99.38
584;HTU21D;27024;54.068;12.116;2022-11-02T16:52:17;9.72;99.96
584;HTU21D;27024;54.068;12.116;2022-11-02T16:54:45;9.65;100.35
584;HTU21D;27024;54.068;12.116;2022-11-02T16:57:13;9.61;100.68
584;HTU21D;27024;54.068;12.116;2022-11-02T16:59:56;9.49;101.12
584;HTU21D;27024;54.068;12.116;2022-11-02T17:02:36;9.53;101.05
584;HTU21D;27024;54.068;12.116;2022-11-02T17:05:05;9.53;101.30
584;HTU21D;27024;54.068;12.116;2022-11-02T17:07:41;9.46;101.97
584;HTU21D;27024;54.068;12.116;2022-11-02T17:10:18;9.42;102.47
584;HTU21D;27024;54.068;12.116;2022-11-02T17:12:46;9.40;102.61
584;HTU21D;27024;54.068;12.116;2022-11-02T17:15:21;9.29;103.29
584;HTU21D;27024;54.068;12.116;2022-11-02T17:17:49;9.24;104.01
584;HTU21D;27024;54.068;12.116;2022-11-02T17:20:21;9.25;103.97
584;HTU21D;27024;54.068;12.116;2022-11-02T17:23:34;9.16;104.59
584;HTU21D;27024;54.068;12.116;2022-11-02T17:26:32;9.11;105.25
584;HTU21D;27024;54.068;12.116;2022-11-02T17:31:56;9.07;105.57
584;HTU21D;27024;54.068;12.116;2022-11-02T17:34:26;9.04;105.96
584;HTU21D;27024;54.068;12.116;2022-11-02T17:36:53;8.98;106.35
584;HTU21D;27024;54.068;12.116;2022-11-02T17:39:20;8.97;106.39
584;HTU21D;27024;54.068;12.116;2022-11-02T17:41:55;8.92;106.89
584;HTU21D;27024;54.068;12.116;2022-11-02T17:44:41;8.91;106.85
584;HTU21D;27024;54.068;12.116;2022-11-02T17:47:12;8.83;107.27
584;HTU21D;27024;54.068;12.116;2022-11-02T17:49:39;8.85;107.32
584;HTU21D;27024;54.068;12.116;2022-11-02T17:52:06;8.82;107.40
584;HTU21D;27024;54.068;12.116;2022-11-02T17:54:35;8.81;107.53
584;HTU21D;27024;54.068;12.116;2022-11-02T17:57:08;8.97;108.34
584;HTU21D;27024;54.068;12.116;2022-11-02T17:59:36;8.79;108.14
584;HTU21D;27024;54.068;12.116;2022-11-02T18:02:10;8.73;108.46
584;HTU21D;27024;54.068;12.116;2022-11-02T18:04:38;8.65;108.95
584;HTU21D;27024;54.068;12.116;2022-11-02T18:07:04;8.91;110.06
584;HTU21D;27024;54.068;12.116;2022-11-02T18:09:31;8.66;109.04
584;HTU21D;27024;54.068;12.116;2022-11-02T18:11:58;8.59;109.43
584;HTU21D;27024;54.068;12.116;2022-11-02T18:14:25;8.57;109.59
584;HTU21D;27024;54.068;12.116;2022-11-02T18:16:52;8.52;110.07
584;HTU21D;27024;54.068;12.116;2022-11-02T18:19:18;8.56;109.92
584;HTU21D;27024;54.068;12.116;2022-11-02T18:21:45;8.52;110.29
584;HTU21D;27024;54.068;12.116;2022-11-02T18:24:12;8.56;110.39
584;HTU21D;27024;54.068;12.116;2022-11-02T18:26:39;8.51;110.52
584;HTU21D;27024;54.068;12.116;2022-11-02T18:29:12;8.50;110.62
584;HTU21D;27024;54.068;12.116;2022-11-02T18:31:39;8.53;110.79
584;HTU21D;27024;54.068;12.116;2022-11-02T18:34:05;8.43;110.99
584;HTU21D;27024;54.068;12.116;2022-11-02T18:36:36;8.32;111.27
584;HTU21D;27024;54.068;12.116;2022-11-02T18:39:03;8.11;111.94
584;HTU21D;27024;54.068;12.116;2022-11-02T18:41:30;8.12;112.20
584;HTU21D;27024;54.068;12.116;2022-11-02T18:43:59;8.12;112.04
584;HTU21D;27024;54.068;12.116;2022-11-02T18:46:33;8.11;111.87
584;HTU21D;27024;54.068;12.116;2022-11-02T18:49:00;8.08;112.26
584;HTU21D;27024;54.068;12.116;2022-11-02T18:51:27;8.04;112.38